createdAt,value
2019-04-29T00:00:55.305Z,94722.51
2019-04-29T00:03:26.654Z,94713.38
2019-04-29T00:05:58.006Z,94726.52
2019-04-29T00:08:29.445Z,94727.78
2019-04-29T00:11:02.002Z,94727.30
2019-04-29T00:13:33.366Z,94728.63
2019-04-29T00:16:14.994Z,94724.08
2019-04-29T00:19:05.269Z,94715.62
2019-04-29T00:21:37.225Z,94715.62
2019-04-29T00:24:08.601Z,94710.73
2019-04-29T00:26:39.985Z,94710.73
2019-04-29T00:29:11.334Z,94708.45
2019-04-29T00:31:43.740Z,94701.93
2019-04-29T00:34:14.889Z,94696.89
2019-04-29T00:36:53.070Z,94703.23
2019-04-29T00:39:53.799Z,94696.90
2019-04-29T00:42:44.001Z,94679.61
2019-04-29T00:45:16.231Z,94679.61
2019-04-29T00:47:47.483Z,94695.11
2019-04-29T00:50:18.983Z,94693.65
2019-04-29T00:52:50.419Z,94700.32
2019-04-29T00:55:24.170Z,94700.32
2019-04-29T00:57:55.667Z,94701.61
2019-04-29T01:00:35.019Z,94701.61
2019-04-29T01:03:06.879Z,94696.90
2019-04-29T01:05:38.958Z,94697.41
2019-04-29T01:08:10.557Z,94694.78
2019-04-29T01:10:42.112Z,94697.05
2019-04-29T01:13:13.644Z,94699.19
2019-04-29T01:15:45.391Z,94699.19
2019-04-29T01:18:17.155Z,94698.98
2019-04-29T01:20:48.866Z,94696.87
2019-04-29T01:23:20.466Z,94694.78
2019-04-29T01:25:55.602Z,94695.11
2019-04-29T01:28:35.998Z,94694.78
2019-04-29T01:31:18.105Z,94696.06
2019-04-29T01:33:51.369Z,94691.36
2019-04-29T01:36:30.391Z,94686.95
2019-04-29T01:39:04.488Z,94684.17
2019-04-29T01:41:43.992Z,94686.94
2019-04-29T01:44:16.223Z,94679.44
2019-04-29T01:46:47.529Z,94683.34
2019-04-29T01:49:18.853Z,94683.36
2019-04-29T01:51:50.263Z,94681.09
2019-04-29T01:54:21.599Z,94681.42
2019-04-29T01:56:53.039Z,94680.44
2019-04-29T01:59:24.530Z,94686.45
2019-04-29T02:01:55.873Z,94686.30
2019-04-29T02:04:27.412Z,94682.56
2019-04-29T02:06:58.936Z,94680.27
2019-04-29T02:09:35.530Z,94681.58
2019-04-29T02:12:07.143Z,94679.77
2019-04-29T02:14:38.634Z,94685.52
2019-04-29T02:17:10.295Z,94684.19
2019-04-29T02:19:41.922Z,94685.97
2019-04-29T02:22:41.693Z,94686.63
2019-04-29T02:25:18.140Z,94689.41
2019-04-29T02:27:49.460Z,94684.35
2019-04-29T02:30:45.321Z,94682.06
2019-04-29T02:33:16.907Z,94680.10
2019-04-29T02:35:48.569Z,94677.36
2019-04-29T02:38:33.147Z,94676.20
2019-04-29T02:41:11.453Z,94677.69
2019-04-29T02:43:45.807Z,94675.70
2019-04-29T02:46:17.417Z,94671.16
2019-04-29T02:48:48.984Z,94676.00
2019-04-29T02:51:37.439Z,94681.55
2019-04-29T02:54:08.807Z,94686.75
2019-04-29T02:56:41.547Z,94683.63
2019-04-29T02:59:13.671Z,94684.06
2019-04-29T03:02:02.196Z,94687.47
2019-04-29T03:04:36.900Z,94687.75
2019-04-29T03:07:08.667Z,94695.94
2019-04-29T03:09:45.543Z,94685.23
2019-04-29T03:12:18.113Z,94693.37
2019-04-29T03:14:49.551Z,94693.37
2019-04-29T03:17:21.200Z,94691.88
2019-04-29T03:20:11.505Z,94698.41
2019-04-29T03:22:43.734Z,94693.73
2019-04-29T03:25:14.098Z,94704.08
2019-04-29T03:27:45.618Z,94704.08
2019-04-29T03:30:17.398Z,94704.70
2019-04-29T03:32:48.904Z,94711.22
2019-04-29T03:35:20.530Z,94711.22
2019-04-29T03:37:52.075Z,94712.89
2019-04-29T03:40:23.715Z,94712.89
2019-04-29T03:42:55.278Z,94706.42
2019-04-29T03:45:26.975Z,94702.16
2019-04-29T03:47:59.389Z,94709.72
2019-04-29T03:50:31.068Z,94709.72
2019-04-29T03:53:03.891Z,94702.88
2019-04-29T03:55:39.691Z,94709.11
2019-04-29T03:58:08.690Z,94715.46
2019-04-29T04:00:44.012Z,94714.65
2019-04-29T04:03:39.897Z,94711.52
2019-04-29T04:06:20.655Z,94711.52
2019-04-29T04:09:05.470Z,94713.80
2019-04-29T04:11:29.461Z,94713.82
2019-04-29T04:14:01.012Z,94723.88
2019-04-29T04:16:50.590Z,94732.03
2019-04-29T04:19:22.821Z,94732.03
2019-04-29T04:21:54.325Z,94726.97
2019-04-29T04:24:25.932Z,94722.75
2019-04-29T04:26:57.506Z,94717.26
2019-04-29T04:29:29.237Z,94715.91
2019-04-29T04:32:00.817Z,94713.78
2019-04-29T04:34:32.127Z,94719.14
2019-04-29T04:37:03.467Z,94708.39
2019-04-29T04:39:36.735Z,94713.69
2019-04-29T04:42:08.078Z,94713.69
2019-04-29T04:44:49.345Z,94707.30
2019-04-29T04:47:21.341Z,94718.08
2019-04-29T04:49:53.086Z,94718.08
2019-04-29T04:52:24.437Z,94706.53
2019-04-29T04:54:56.262Z,94707.84
2019-04-29T04:57:27.560Z,94707.52
2019-04-29T04:59:59.111Z,94706.20
2019-04-29T05:02:30.411Z,94704.76
2019-04-29T05:05:01.689Z,94688.27
2019-04-29T05:07:33.597Z,94699.67
2019-04-29T05:10:04.796Z,94703.23
2019-04-29T05:12:36.009Z,94705.84
2019-04-29T05:15:07.478Z,94699.59
2019-04-29T05:17:38.611Z,94703.01
2019-04-29T05:20:11.260Z,94701.09
2019-04-29T05:22:59.509Z,94704.25
2019-04-29T05:25:32.105Z,94703.73
2019-04-29T05:28:03.542Z,94703.06
2019-04-29T05:30:34.836Z,94703.45
2019-04-29T05:33:06.046Z,94695.84
2019-04-29T05:35:56.618Z,94699.80
2019-04-29T05:38:31.679Z,94696.00
2019-04-29T05:41:03.081Z,94700.62
2019-04-29T05:43:40.967Z,94704.23
2019-04-29T05:46:24.755Z,94705.09
2019-04-29T05:48:55.916Z,94687.63
2019-04-29T05:51:32.420Z,94699.81
2019-04-29T05:54:04.514Z,94701.05
2019-04-29T05:56:35.468Z,94701.54
2019-04-29T05:59:08.532Z,94697.22
2019-04-29T06:01:42.606Z,94701.58
2019-04-29T06:04:16.362Z,94705.34
2019-04-29T06:06:45.000Z,94705.21
2019-04-29T06:09:18.416Z,94705.89
2019-04-29T06:11:49.567Z,94704.81
2019-04-29T06:14:22.261Z,94709.02
2019-04-29T06:16:57.452Z,94705.90
2019-04-29T06:19:26.706Z,94703.86
2019-04-29T06:21:58.088Z,94708.38
2019-04-29T06:24:29.278Z,94715.77
2019-04-29T06:27:00.596Z,94705.67
2019-04-29T06:29:31.582Z,94711.37
2019-04-29T06:32:02.825Z,94710.38
2019-04-29T06:34:35.480Z,94709.84
2019-04-29T06:37:07.479Z,94709.77
2019-04-29T06:39:38.618Z,94700.74
2019-04-29T06:42:09.808Z,94695.55
2019-04-29T06:44:44.469Z,94697.30
2019-04-29T06:47:16.846Z,94691.88
2019-04-29T06:49:46.587Z,94681.20
2019-04-29T06:52:17.513Z,94684.34
2019-04-29T06:54:48.450Z,94676.19
2019-04-29T06:57:19.512Z,94680.33
2019-04-29T06:59:50.511Z,94685.28
2019-04-29T07:02:21.715Z,94680.67
2019-04-29T07:04:52.972Z,94674.16
2019-04-29T07:07:24.159Z,94675.91
2019-04-29T07:09:57.260Z,94677.16
2019-04-29T07:12:28.422Z,94677.54
2019-04-29T07:15:00.672Z,94674.75
2019-04-29T07:17:31.852Z,94668.98
2019-04-29T07:20:03.379Z,94664.65
2019-04-29T07:22:34.736Z,94667.13
2019-04-29T07:25:06.155Z,94663.73
2019-04-29T07:27:43.137Z,94666.30
2019-04-29T07:30:10.944Z,94661.06
2019-04-29T07:32:46.899Z,94662.95
2019-04-29T07:35:15.138Z,94662.52
2019-04-29T07:37:46.072Z,94671.03
2019-04-29T07:40:17.553Z,94670.34
2019-04-29T07:42:48.992Z,94670.88
2019-04-29T07:45:43.295Z,94660.68
2019-04-29T07:48:06.390Z,94665.65
2019-04-29T07:50:35.521Z,94656.69
2019-04-29T07:53:06.524Z,94656.58
2019-04-29T07:55:37.667Z,94648.10
2019-04-29T07:58:09.069Z,94656.72
2019-04-29T08:00:44.624Z,94650.25
2019-04-29T08:03:13.372Z,94652.42
2019-04-29T08:05:44.914Z,94646.61
2019-04-29T08:08:21.360Z,94649.48
2019-04-29T08:10:55.935Z,94646.52
2019-04-29T08:13:22.971Z,94637.16
2019-04-29T08:15:54.352Z,94653.80
2019-04-29T08:18:25.833Z,94640.75
2019-04-29T08:20:57.297Z,94648.34
2019-04-29T08:23:28.572Z,94641.29
2019-04-29T08:26:02.955Z,94649.97
2019-04-29T08:28:32.227Z,94636.05
2019-04-29T08:31:03.157Z,94638.94
2019-04-29T08:33:34.309Z,94635.39
2019-04-29T08:36:05.496Z,94634.57
2019-04-29T08:38:36.618Z,94636.27
2019-04-29T08:41:08.812Z,94634.38
2019-04-29T08:44:14.825Z,94630.16
2019-04-29T08:46:38.537Z,94624.75
2019-04-29T08:49:20.600Z,94618.48
2019-04-29T08:51:51.705Z,94618.48
2019-04-29T08:54:22.625Z,94619.22
2019-04-29T08:57:03.134Z,94615.97
2019-04-29T08:59:26.959Z,94617.14
2019-04-29T09:01:58.156Z,94607.66
2019-04-29T09:04:33.280Z,94610.33
2019-04-29T09:07:12.369Z,94604.08
2019-04-29T09:09:35.089Z,94597.63
2019-04-29T09:12:06.381Z,94590.31
2019-04-29T09:14:37.584Z,94590.32
2019-04-29T09:17:19.828Z,94584.38
2019-04-29T09:19:41.489Z,94585.14
2019-04-29T09:22:14.499Z,94584.73
2019-04-29T09:25:04.349Z,94579.34
2019-04-29T09:27:36.291Z,94576.03
2019-04-29T09:30:07.940Z,94579.02
2019-04-29T09:32:39.980Z,94573.47
2019-04-29T09:35:11.304Z,94565.58
2019-04-29T09:37:42.497Z,94571.34
2019-04-29T09:40:16.098Z,94561.27
2019-04-29T09:43:14.773Z,94555.39
2019-04-29T09:46:00.273Z,94542.72
2019-04-29T09:48:31.877Z,94545.28
2019-04-29T09:51:16.328Z,94546.17
2019-04-29T09:53:36.110Z,94548.53
2019-04-29T09:56:07.256Z,94541.05
2019-04-29T09:58:38.435Z,94539.14
2019-04-29T10:01:21.204Z,94538.38
2019-04-29T10:04:05.597Z,94540.16
2019-04-29T10:06:38.108Z,94533.83
2019-04-29T10:09:11.236Z,94534.11
2019-04-29T10:11:42.452Z,94530.00
2019-04-29T10:14:13.917Z,94529.85
2019-04-29T10:16:51.719Z,94510.16
2019-04-29T10:19:40.449Z,94505.20
2019-04-29T10:22:11.751Z,94509.51
2019-04-29T10:24:42.856Z,94497.13
2019-04-29T10:27:14.202Z,94491.64
2019-04-29T10:29:50.701Z,94496.11
2019-04-29T10:32:21.146Z,94486.80
2019-04-29T10:34:52.292Z,94480.92
2019-04-29T10:37:30.956Z,94479.49
2019-04-29T10:40:21.438Z,94484.14
2019-04-29T10:43:15.406Z,94483.48
2019-04-29T10:46:08.156Z,94472.39
2019-04-29T10:48:53.740Z,94474.83
2019-04-29T10:51:27.346Z,94462.67
2019-04-29T10:53:59.619Z,94465.08
2019-04-29T10:56:30.770Z,94459.03
2019-04-29T10:59:04.512Z,94452.12
2019-04-29T11:02:49.216Z,94450.09
2019-04-29T11:05:35.414Z,94448.02
2019-04-29T11:08:22.549Z,94443.55
2019-04-29T11:11:02.174Z,94429.19
2019-04-29T11:13:27.403Z,94422.46
2019-04-29T11:15:58.506Z,94425.17
2019-04-29T11:18:29.585Z,94433.77
2019-04-29T11:21:00.854Z,94428.34
2019-04-29T11:24:05.697Z,94427.66
2019-04-29T11:26:54.874Z,94435.33
2019-04-29T11:29:27.367Z,94427.34
2019-04-29T11:32:00.965Z,94421.81
2019-04-29T11:34:41.028Z,94421.66
2019-04-29T11:37:17.897Z,94421.66
2019-04-29T11:39:50.329Z,94425.81
2019-04-29T11:42:21.201Z,94424.27
2019-04-29T11:44:52.391Z,94420.86
2019-04-29T11:47:25.173Z,94409.91
2019-04-29T11:50:07.542Z,94406.22
2019-04-29T11:52:36.617Z,94405.55
2019-04-29T11:55:08.423Z,94407.77
2019-04-29T11:57:45.954Z,94400.36
2019-04-29T12:00:28.026Z,94389.95
2019-04-29T12:03:01.444Z,94391.51
2019-04-29T12:05:40.235Z,94395.91
2019-04-29T12:08:16.391Z,94384.36
2019-04-29T12:10:48.399Z,94379.16
2019-04-29T12:13:28.175Z,94377.19
2019-04-29T12:16:11.026Z,94375.25
2019-04-29T12:19:07.171Z,94371.96
2019-04-29T12:21:39.251Z,94369.33
2019-04-29T12:24:10.580Z,94363.37
2019-04-29T12:26:44.318Z,94359.47
2019-04-29T12:29:18.246Z,94362.30
2019-04-29T12:32:12.179Z,94350.05
2019-04-29T12:35:00.816Z,94348.84
2019-04-29T12:38:00.681Z,94351.46
2019-04-29T12:40:54.591Z,94348.21
2019-04-29T12:43:59.359Z,94347.41
2019-04-29T12:46:43.901Z,94336.27
2019-04-29T12:49:14.963Z,94337.48
2019-04-29T12:51:46.161Z,94333.00
2019-04-29T12:54:17.268Z,94312.83
2019-04-29T12:56:49.511Z,94308.72
2019-04-29T12:59:20.735Z,94317.32
2019-04-29T13:02:24.322Z,94321.33
2019-04-29T13:05:04.851Z,94312.64
2019-04-29T13:07:50.195Z,94305.34
2019-04-29T13:10:42.405Z,94301.73
2019-04-29T13:13:11.348Z,94307.65
2019-04-29T13:16:07.445Z,94304.56
2019-04-29T13:18:53.950Z,94307.77
2019-04-29T13:21:25.951Z,94306.87
2019-04-29T13:24:12.822Z,94301.75
2019-04-29T13:26:33.339Z,94291.95
2019-04-29T13:29:02.879Z,94282.28
2019-04-29T13:31:38.386Z,94302.59
2019-04-29T13:34:22.967Z,94305.91
2019-04-29T13:36:41.472Z,94311.12
2019-04-29T13:39:12.847Z,94313.72
2019-04-29T13:41:57.076Z,94301.97
2019-04-29T13:44:19.658Z,94300.30
2019-04-29T13:47:14.979Z,94310.48
2019-04-29T13:49:52.538Z,94302.39
2019-04-29T13:52:23.650Z,94299.03
2019-04-29T13:54:54.757Z,94294.77
2019-04-29T13:57:25.841Z,94298.19
2019-04-29T14:00:26.356Z,94289.95
2019-04-29T14:03:11.758Z,94281.27
2019-04-29T14:05:41.758Z,94281.11
2019-04-29T14:08:12.975Z,94277.32
2019-04-29T14:10:46.820Z,94275.38
2019-04-29T14:13:20.652Z,94273.94
2019-04-29T14:15:49.432Z,94279.08
2019-04-29T14:18:20.407Z,94282.68
2019-04-29T14:20:53.175Z,94281.58
2019-04-29T14:23:24.181Z,94275.75
2019-04-29T14:25:55.339Z,94268.70
2019-04-29T14:28:26.615Z,94269.75
2019-04-29T14:30:58.028Z,94264.70
2019-04-29T14:33:34.352Z,94259.11
2019-04-29T14:36:08.532Z,94256.64
2019-04-29T14:38:40.743Z,94259.05
2019-04-29T14:41:14.093Z,94262.54
2019-04-29T14:44:04.969Z,94263.09
2019-04-29T14:46:57.833Z,94273.89
2019-04-29T14:49:35.451Z,94257.20
2019-04-29T14:52:08.209Z,94256.16
2019-04-29T14:54:41.822Z,94259.08
2019-04-29T14:57:12.147Z,94265.57
2019-04-29T14:59:43.609Z,94260.06
2019-04-29T15:02:19.250Z,94257.38
2019-04-29T15:04:50.936Z,94253.23
2019-04-29T15:07:22.291Z,94244.70
2019-04-29T15:09:58.196Z,94245.05
2019-04-29T15:13:19.770Z,94254.21
2019-04-29T15:16:03.713Z,94267.91
2019-04-29T15:18:47.468Z,94268.53
2019-04-29T15:21:43.808Z,94269.55
2019-04-29T15:24:15.839Z,94275.28
2019-04-29T15:26:46.680Z,94263.41
2019-04-29T15:29:18.280Z,94260.06
2019-04-29T15:31:49.394Z,94264.13
2019-04-29T15:34:20.403Z,94258.08
2019-04-29T15:36:51.586Z,94253.86
2019-04-29T15:39:25.243Z,94260.34
2019-04-29T15:41:55.672Z,94267.34
2019-04-29T15:44:27.067Z,94264.55
2019-04-29T15:46:58.213Z,94258.93
2019-04-29T15:49:29.583Z,94261.55
2019-04-29T15:52:00.788Z,94255.84
2019-04-29T15:54:31.895Z,94254.33
2019-04-29T15:57:08.030Z,94256.37
2019-04-29T15:59:48.587Z,94255.23
2019-04-29T16:02:09.506Z,94257.88
2019-04-29T16:04:47.317Z,94256.73
2019-04-29T16:07:46.752Z,94254.80
2019-04-29T16:10:35.135Z,94260.81
2019-04-29T16:13:08.266Z,94255.23
2019-04-29T16:15:39.297Z,94260.44
2019-04-29T16:18:14.742Z,94260.44
2019-04-29T16:20:43.435Z,94260.01
2019-04-29T16:23:14.882Z,94266.98
2019-04-29T16:25:52.001Z,94274.04
2019-04-29T16:28:24.465Z,94274.92
2019-04-29T16:30:52.353Z,94271.47
2019-04-29T16:33:23.420Z,94274.68
2019-04-29T16:35:57.588Z,94274.64
2019-04-29T16:38:27.267Z,94274.89
2019-04-29T16:41:19.559Z,94274.92
2019-04-29T16:43:49.432Z,94276.95
2019-04-29T16:46:35.351Z,94273.35
2019-04-29T16:48:59.793Z,94280.09
2019-04-29T16:51:31.191Z,94278.88
2019-04-29T16:54:02.490Z,94279.30
2019-04-29T16:56:34.047Z,94278.77
2019-04-29T16:59:09.343Z,94286.31
2019-04-29T17:01:38.421Z,94285.36
2019-04-29T17:04:09.634Z,94281.67
2019-04-29T17:06:42.052Z,94288.02
2019-04-29T17:09:34.935Z,94290.72
2019-04-29T17:12:06.566Z,94293.60
2019-04-29T17:15:02.417Z,94296.70
2019-04-29T17:17:15.686Z,94289.23
2019-04-29T17:19:47.007Z,94295.38
2019-04-29T17:22:25.637Z,94293.61
2019-04-29T17:24:50.753Z,94292.64
2019-04-29T17:27:42.337Z,94297.02
2019-04-29T17:30:51.686Z,94302.58
2019-04-29T17:33:49.032Z,94304.23
2019-04-29T17:36:13.474Z,94310.32
2019-04-29T17:38:44.793Z,94309.64
2019-04-29T17:41:16.175Z,94308.40
2019-04-29T17:44:05.370Z,94305.00
2019-04-29T17:46:58.301Z,94315.53
2019-04-29T17:49:47.296Z,94309.00
2019-04-29T17:52:21.782Z,94314.89
2019-04-29T17:54:55.665Z,94313.72
2019-04-29T17:57:40.684Z,94314.48
2019-04-29T18:00:42.223Z,94315.36
2019-04-29T18:03:25.978Z,94312.27
2019-04-29T18:06:17.288Z,94322.75
2019-04-29T18:09:09.674Z,94322.91
2019-04-29T18:11:50.591Z,94331.84
2019-04-29T18:14:15.052Z,94336.79
2019-04-29T18:16:47.816Z,94336.05
2019-04-29T18:19:24.995Z,94343.70
2019-04-29T18:22:16.021Z,94347.33
2019-04-29T18:25:07.280Z,94357.00
2019-04-29T18:27:38.291Z,94360.17
2019-04-29T18:30:12.281Z,94362.20
2019-04-29T18:32:46.614Z,94358.38
2019-04-29T18:35:17.040Z,94361.87
2019-04-29T18:37:49.389Z,94375.68
2019-04-29T18:40:20.846Z,94380.28
2019-04-29T18:42:52.302Z,94372.62
2019-04-29T18:45:25.522Z,94376.61
2019-04-29T18:47:56.611Z,94374.71
2019-04-29T18:50:29.704Z,94375.91
2019-04-29T18:53:00.833Z,94375.87
2019-04-29T18:55:32.210Z,94373.29
2019-04-29T18:58:03.379Z,94376.69
2019-04-29T19:00:34.871Z,94378.52
2019-04-29T19:03:06.666Z,94377.09
2019-04-29T19:05:47.259Z,94373.36
2019-04-29T19:08:22.850Z,94374.57
2019-04-29T19:10:52.357Z,94371.88
2019-04-29T19:13:26.053Z,94364.20
2019-04-29T19:16:08.997Z,94359.99
2019-04-29T19:18:30.517Z,94371.12
2019-04-29T19:21:01.642Z,94364.99
2019-04-29T19:23:32.651Z,94366.65
2019-04-29T19:26:03.792Z,94365.80
2019-04-29T19:28:36.985Z,94425.08
2019-04-29T19:31:09.828Z,94374.14
2019-04-29T19:33:40.803Z,94376.77
2019-04-29T19:36:17.138Z,94371.86
2019-04-29T19:38:47.245Z,94369.03
2019-04-29T19:41:18.525Z,94370.14
2019-04-29T19:43:55.045Z,94373.19
2019-04-29T19:46:25.325Z,94378.16
2019-04-29T19:48:58.293Z,94378.75
2019-04-29T19:51:28.851Z,94375.70
2019-04-29T19:54:00.181Z,94377.23
2019-04-29T19:56:31.135Z,94379.14
2019-04-29T19:59:10.263Z,94374.39
2019-04-29T20:01:37.952Z,94372.27
2019-04-29T20:04:26.223Z,94375.34
2019-04-29T20:07:05.541Z,94375.34
2019-04-29T20:09:31.431Z,94372.42
2019-04-29T20:12:11.344Z,94371.62
2019-04-29T20:14:38.564Z,94371.13
2019-04-29T20:17:33.106Z,94369.22
2019-04-29T20:20:35.105Z,94367.22
2019-04-29T20:23:06.071Z,94373.75
2019-04-29T20:25:38.543Z,94372.05
2019-04-29T20:28:17.205Z,94364.25
2019-04-29T20:30:43.325Z,94363.87
2019-04-29T20:33:16.073Z,94373.88
2019-04-29T20:35:49.331Z,94372.65
2019-04-29T20:38:21.007Z,94373.08
2019-04-29T20:40:52.364Z,94373.08
2019-04-29T20:43:26.136Z,94375.11
2019-04-29T20:45:58.099Z,94377.83
2019-04-29T20:48:31.397Z,94376.93
2019-04-29T20:51:11.674Z,94369.84
2019-04-29T20:54:00.239Z,94376.33
2019-04-29T20:56:35.189Z,94376.33
2019-04-29T20:59:08.990Z,94378.87
2019-04-29T21:01:43.087Z,94380.19
2019-04-29T21:04:13.114Z,94383.80
2019-04-29T21:06:59.201Z,94379.34
2019-04-29T21:09:16.953Z,94386.43
2019-04-29T21:12:20.383Z,94389.87
2019-04-29T21:14:52.704Z,94388.85
2019-04-29T21:17:30.704Z,94388.85
2019-04-29T21:19:56.735Z,94392.50
2019-04-29T21:22:27.864Z,94391.69
2019-04-29T21:24:59.018Z,94385.41
2019-04-29T21:27:30.277Z,94385.41
2019-04-29T21:30:01.236Z,94391.19
2019-04-29T21:32:37.063Z,94391.60
2019-04-29T21:35:28.857Z,94394.02
2019-04-29T21:38:28.495Z,94398.68
2019-04-29T21:41:04.300Z,94402.02
2019-04-29T21:43:37.446Z,94396.25
2019-04-29T21:46:08.511Z,94406.07
2019-04-29T21:48:39.718Z,94410.33
2019-04-29T21:51:12.447Z,94405.78
2019-04-29T21:53:45.801Z,94396.25
2019-04-29T21:56:17.003Z,94399.69
2019-04-29T21:58:48.483Z,94399.69
2019-04-29T22:01:20.240Z,94399.61
2019-04-29T22:03:51.402Z,94403.34
2019-04-29T22:06:24.834Z,94397.78
2019-04-29T22:09:01.119Z,94404.27
2019-04-29T22:11:27.913Z,94401.42
2019-04-29T22:13:59.308Z,94402.92
2019-04-29T22:16:30.558Z,94402.23
2019-04-29T22:19:01.763Z,94400.72
2019-04-29T22:21:32.802Z,94402.33
2019-04-29T22:24:06.178Z,94392.11
2019-04-29T22:26:36.967Z,94392.73
2019-04-29T22:29:08.307Z,94389.98
2019-04-29T22:31:39.588Z,94389.98
2019-04-29T22:34:15.135Z,94393.42
2019-04-29T22:36:45.438Z,94392.28
2019-04-29T22:39:16.944Z,94394.83
2019-04-29T22:42:12.524Z,94401.41
2019-04-29T22:44:45.641Z,94393.89
2019-04-29T22:47:23.382Z,94382.66
2019-04-29T22:49:51.426Z,94388.72
2019-04-29T22:52:25.402Z,94386.64
2019-04-29T22:54:57.949Z,94386.64
2019-04-29T22:57:31.686Z,94380.61
2019-04-29T23:00:01.442Z,94380.61
2019-04-29T23:02:34.418Z,94377.85
2019-04-29T23:05:06.412Z,94377.24
2019-04-29T23:07:37.880Z,94374.82
2019-04-29T23:10:09.723Z,94381.90
2019-04-29T23:12:42.076Z,94381.69
2019-04-29T23:15:15.065Z,94381.69
2019-04-29T23:17:50.674Z,94377.02
2019-04-29T23:20:38.651Z,94377.02
2019-04-29T23:23:15.625Z,94377.14
2019-04-29T23:25:51.807Z,94377.14
2019-04-29T23:28:26.908Z,94374.34
2019-04-29T23:30:56.172Z,94371.79
2019-04-29T23:33:27.586Z,94368.67
2019-04-29T23:35:58.857Z,94382.69
2019-04-29T23:38:30.497Z,94382.69
2019-04-29T23:41:01.833Z,94376.45
2019-04-29T23:43:33.125Z,94376.45
2019-04-29T23:46:04.958Z,94369.05
2019-04-29T23:48:39.525Z,94378.92
2019-04-29T23:51:09.658Z,94376.64
2019-04-29T23:53:41.159Z,94376.80
2019-04-29T23:56:12.495Z,94369.56
2019-04-29T23:58:49.788Z,94368.92
